Airfield :
LOGIN :

Register | Disclaimer

   EN    FR    IT 

 










Legend :    VFR   Marginal VFR   IFR   Intensive IFR   Very Intensive IFR
Visi :
Ceiling :
>= 8 km
>= 3000ft
5 to 8 km
1000 to 3000 ft
1500m to 5 km
500 to 1000 ft
800 to 1500m
200 to 500 ft
< 800m
< 200 ft
Symbols :   Thunderstorms  Fog  Heavy snow  Heavy precipitations  Wind > 20 kt
SIGMETs :     Misc.  Thunderstorms  Icing  Turbulence  Mountain Waves  Volcanic Ashes







- Airport Elevation : 665 ft
- IATA code : NOC


EIKN - Connaught / Knock- Ireland West

CURRENT METAR :
  • 201730Z 13014KT 100V170 CAVOK 16/10 Q1013 NOSIG

EXPIRED METARs :
  • 201700Z 13014KT 080V160 CAVOK 17/11 Q1013 NOSIG
  • 201630Z 13012KT 100V180 9999 FEW024 18/12 Q1014 NOSIG
  • 201600Z 13016G26KT 110V170 9999 FEW022 18/12 Q1014 NOSIG
  • 201530Z 14016KT 090V170 9999 FEW022 18/12 Q1015 NOSIG
  • 201500Z 15017KT 110V170 9999 FEW022 18/12 Q1015 NOSIG

TAF TAF EIKN
Valid from the 20 at 18:00 until the 21 at 18:00 UTC


201700Z 2018/2118 13015KT CAVOK
TEMPO 2018/2109 13017G27KT
BECMG 2109/2112 14018G30KT
PROB30
TEMPO 2112/2115 5000 -RA BKN012 FEW018CB
BECMG 2113/2115 13014KT
TEMPO 2115/2118 13015G25KT 4000 -RA BKN008 FEW018CB
No reported NOTAMs for that airfield.



MET'MAP, your aeronautical weather chart ! - Copyright ORBIFLY December 2007 - Disclaimer

ORBIFLY MET'MAP TEAM :

Programming & Development : Alexandra Zaïnal
Concept & Development : Baudouin d'Aumeries
Co-Development & Prog : Marc-Olivier Méhu
Technical & hardware support : Manuel Goepfert

Contact : metmap@orbifly.com




SOURCES & CREDITS :

   NOAA